Time;durP1;ratioP1;P1;durP2;ratioP2;P2;SDS_P1;SDS_P2;PMS_P1;PMS_P2;Temp;Humidity;BMP_temperature;BMP_pressure;BME280_temperature;BME280_humidity;BME280_pressure;Samples;Min_cycle;Max_cycle;Signal;HPM_P1;HPM_P2
2022/03/24 00:00:46;;;;;;;35.10;21.53;;;11.00;99.90;;;;;;4973407;28;20705;-52
2022/03/24 00:03:13;;;;;;;35.90;22.27;;;10.90;99.90;;;;;;4975719;28;20736;-52
2022/03/24 00:05:43;;;;;;;33.97;22.83;;;10.90;99.90;;;;;;4976829;28;20286;-51
2022/03/24 00:08:10;;;;;;;30.87;20.90;;;10.70;1.00;;;;;;4978081;28;20673;-51
2022/03/24 00:10:37;;;;;;;28.40;19.60;;;10.50;1.00;;;;;;4971737;28;20832;-55
2022/03/24 00:13:03;;;;;;;31.67;20.17;;;10.50;99.90;;;;;;4975229;28;20362;-54
2022/03/24 00:15:30;;;;;;;32.20;20.30;;;10.50;1.00;;;;;;4976239;28;20243;-53
2022/03/24 00:17:58;;;;;;;30.27;20.63;;;10.60;99.90;;;;;;4973857;28;20308;-53
2022/03/24 00:20:25;;;;;;;30.40;22.17;;;10.50;99.90;;;;;;4970240;28;21759;-52
2022/03/24 00:22:52;;;;;;;27.00;20.20;;;10.50;31.50;;;;;;4956883;28;20217;-52
2022/03/24 00:25:19;;;;;;;27.93;20.07;;;10.40;1.00;;;;;;4954389;28;20580;-52
2022/03/24 00:27:46;;;;;;;31.70;20.63;;;10.20;99.90;;;;;;4955315;28;20475;-53
2022/03/24 00:30:13;;;;;;;30.80;21.70;;;9.90;50.50;;;;;;4968512;28;20298;-52
2022/03/24 00:32:40;;;;;;;30.17;20.57;;;10.10;1.00;;;;;;4972241;28;20250;-51
2022/03/24 00:35:08;;;;;;;31.73;21.30;;;10.00;1.00;;;;;;4969939;28;21963;-53
2022/03/24 00:37:35;;;;;;;30.17;19.77;;;9.90;99.90;;;;;;4970823;28;20202;-52
2022/03/24 00:40:06;;;;;;;30.63;21.80;;;10.00;1.00;;;;;;4968445;28;20231;-50
2022/03/24 00:42:36;;;;;;;34.17;20.60;;;10.20;1.00;;;;;;4971575;28;20199;-51
2022/03/24 00:45:05;;;;;;;29.87;20.67;;;10.20;1.00;;;;;;4968657;28;20255;-52
2022/03/24 00:47:35;;;;;;;32.73;22.00;;;10.30;1.00;;;;;;4970521;28;20589;-49
2022/03/24 00:50:07;;;;;;;30.53;19.53;;;10.30;1.00;;;;;;4970256;28;20641;-53
2022/03/24 00:52:41;;;;;;;31.70;21.07;;;10.40;1.00;;;;;;4969429;28;20215;-53
2022/03/24 00:55:19;;;;;;;29.90;20.80;;;10.40;1.00;;;;;;4970332;28;20670;-53
2022/03/24 00:57:52;;;;;;;30.97;21.00;;;10.40;1.00;;;;;;4968564;28;20304;-52
2022/03/24 01:00:21;;;;;;;30.97;21.13;;;10.30;1.00;;;;;;4968121;28;20198;-51
2022/03/24 01:02:50;;;;;;;31.73;20.47;;;9.40;1.00;;;;;;4972639;28;20292;-51
2022/03/24 01:05:17;;;;;;;30.37;20.30;;;9.10;1.00;;;;;;4971495;28;20705;-54
2022/03/24 01:07:45;;;;;;;31.90;20.50;;;9.00;99.90;;;;;;4974491;28;20259;-52
2022/03/24 01:10:15;;;;;;;36.93;23.30;;;8.80;99.90;;;;;;4970307;28;20687;-52
2022/03/24 01:12:43;;;;;;;32.67;21.43;;;8.60;99.90;;;;;;4976174;28;20232;-53
2022/03/24 01:15:12;;;;;;;33.13;22.57;;;8.80;1.00;;;;;;4975919;28;20724;-51
2022/03/24 01:17:39;;;;;;;34.23;21.87;;;9.20;99.90;;;;;;4980821;28;20316;-52
2022/03/24 01:20:07;;;;;;;34.33;21.50;;;9.40;1.00;;;;;;4974300;28;20212;-54
2022/03/24 01:22:34;;;;;;;39.23;21.50;;;9.40;49.60;;;;;;4975954;28;20311;-53
2022/03/24 01:25:01;;;;;;;37.30;22.17;;;9.50;1.00;;;;;;4975973;28;20277;-50
2022/03/24 01:27:28;;;;;;;35.33;21.77;;;9.60;1.00;;;;;;4978546;28;20229;-50
2022/03/24 01:29:59;;;;;;;35.23;22.37;;;9.60;1.00;;;;;;4972054;28;20217;-52
2022/03/24 01:32:27;;;;;;;33.67;22.23;;;9.70;99.90;;;;;;4976945;28;20207;-49
2022/03/24 01:34:55;;;;;;;32.33;21.33;;;9.70;99.90;;;;;;4973518;28;20242;-51
2022/03/24 01:37:23;;;;;;;38.70;22.07;;;9.80;99.90;;;;;;4974132;28;20292;-53
2022/03/24 01:39:51;;;;;;;33.27;21.97;;;9.80;99.90;;;;;;4974449;28;20742;-52
2022/03/24 01:42:19;;;;;;;35.40;21.10;;;9.90;99.90;;;;;;4971014;28;20213;-52
2022/03/24 01:44:47;;;;;;;32.10;20.83;;;9.70;37.50;;;;;;4967756;28;20217;-53
2022/03/24 01:47:16;;;;;;;35.63;22.37;;;8.80;1.00;;;;;;4969154;28;20228;-52
2022/03/24 01:49:47;;;;;;;34.67;22.13;;;8.00;1.00;;;;;;4969823;28;20320;-51
2022/03/24 01:52:16;;;;;;;33.20;22.47;;;7.90;1.00;;;;;;4969837;28;20203;-51
2022/03/24 01:54:45;;;;;;;32.27;21.73;;;8.30;1.00;;;;;;4969868;28;20205;-53
2022/03/24 01:57:15;;;;;;;39.67;23.57;;;8.60;99.90;;;;;;4972479;28;20208;-52
2022/03/24 01:59:42;;;;;;;33.23;23.00;;;8.80;99.90;;;;;;4975697;28;20204;-52
2022/03/24 02:02:10;;;;;;;36.33;23.60;;;8.70;1.00;;;;;;4973427;28;20295;-51
2022/03/24 02:04:38;;;;;;;33.97;21.90;;;8.90;4.10;;;;;;4973486;28;20246;-50
2022/03/24 02:07:05;;;;;;;33.67;22.67;;;9.00;1.00;;;;;;4970372;28;20646;-51
2022/03/24 02:09:36;;;;;;;37.07;23.00;;;9.00;1.00;;;;;;4972921;28;20600;-52
2022/03/24 02:12:05;;;;;;;32.90;23.10;;;9.10;1.00;;;;;;4972650;28;20625;-52
2022/03/24 02:14:33;;;;;;;36.23;21.77;;;9.10;1.00;;;;;;4975818;28;20238;-52
2022/03/24 02:17:01;;;;;;;33.73;21.90;;;9.20;99.90;;;;;;4971894;28;20211;-52
2022/03/24 02:19:28;;;;;;;30.83;20.97;;;9.30;15.60;;;;;;4973645;28;20355;-53
2022/03/24 02:22:13;;;;;;;35.73;22.40;;;9.10;99.90;;;;;;4974714;28;20207;-52
2022/03/24 02:24:40;;;;;;;35.87;23.20;;;8.40;99.90;;;;;;4974652;28;20212;-52
2022/03/24 02:27:08;;;;;;;35.23;23.23;;;8.50;1.00;;;;;;4971925;28;20222;-53
2022/03/24 02:29:36;;;;;;;37.63;21.70;;;8.60;1.00;;;;;;4972619;28;20210;-53
2022/03/24 02:32:08;;;;;;;35.10;22.43;;;8.60;99.90;;;;;;4975926;28;20336;-51
2022/03/24 02:34:40;;;;;;;30.53;20.20;;;8.70;99.90;;;;;;4972513;28;20214;-50
2022/03/24 02:37:12;;;;;;;32.40;20.97;;;8.90;99.90;;;;;;4974198;28;20204;-52
2022/03/24 02:39:44;;;;;;;33.23;21.43;;;8.90;1.00;;;;;;4976472;28;20218;-53
2022/03/24 02:42:17;;;;;;;35.33;20.80;;;9.00;22.10;;;;;;4976504;28;20212;-51
2022/03/24 02:44:45;;;;;;;35.40;21.30;;;9.10;1.00;;;;;;4976910;28;20547;-52
2022/03/24 02:47:13;;;;;;;34.67;21.60;;;9.10;99.90;;;;;;4977154;28;20559;-52
2022/03/24 02:49:42;;;;;;;34.00;21.63;;;9.00;99.90;;;;;;4975335;28;20225;-51
2022/03/24 02:52:09;;;;;;;36.30;22.97;;;8.90;13.10;;;;;;4977716;28;20237;-50
2022/03/24 02:54:37;;;;;;;32.17;22.73;;;8.80;1.00;;;;;;4976333;28;20205;-50
2022/03/24 02:57:04;;;;;;;30.47;20.20;;;8.80;1.00;;;;;;4976235;28;20247;-51
2022/03/24 02:59:31;;;;;;;36.30;21.47;;;8.80;1.00;;;;;;4975170;28;20674;-51
2022/03/24 03:02:00;;;;;;;34.60;22.20;;;8.70;99.90;;;;;;4973885;28;20801;-57
2022/03/24 03:04:29;;;;;;;32.20;21.47;;;8.30;99.90;;;;;;4976884;28;20783;-52
2022/03/24 03:06:56;;;;;;;36.90;22.53;;;7.80;1.00;;;;;;4978175;28;20781;-50
2022/03/24 03:09:23;;;;;;;35.60;23.70;;;8.10;1.00;;;;;;4973540;28;20220;-52
2022/03/24 03:11:51;;;;;;;40.57;24.23;;;7.80;88.60;;;;;;4976799;28;20726;-51
2022/03/24 03:14:19;;;;;;;34.00;22.87;;;7.90;99.90;;;;;;4976635;28;20206;-53
2022/03/24 03:16:47;;;;;;;35.93;23.57;;;8.10;99.90;;;;;;4976151;28;20389;-53
2022/03/24 03:19:15;;;;;;;42.93;24.63;;;7.70;1.00;;;;;;4978269;28;20657;-51
2022/03/24 03:21:41;;;;;;;38.93;22.50;;;7.90;99.90;;;;;;4974694;28;20301;-53
2022/03/24 03:24:10;;;;;;;35.20;23.27;;;8.10;1.00;;;;;;4978716;28;20241;-53
2022/03/24 03:26:38;;;;;;;34.40;22.70;;;8.10;99.90;;;;;;4976307;28;20604;-53
2022/03/24 03:29:06;;;;;;;39.37;23.57;;;7.80;99.90;;;;;;4978095;28;20249;-52
2022/03/24 03:31:34;;;;;;;34.47;21.73;;;7.80;1.00;;;;;;4977028;28;20521;-53
2022/03/24 03:34:07;;;;;;;36.40;23.17;;;8.10;1.00;;;;;;4977231;28;20651;-51
2022/03/24 03:36:34;;;;;;;34.47;23.60;;;8.10;1.00;;;;;;4975599;28;20319;-52
2022/03/24 03:39:01;;;;;;;35.70;21.50;;;7.70;99.90;;;;;;4975793;28;20289;-52
2022/03/24 03:41:28;;;;;;;33.47;21.87;;;7.40;1.00;;;;;;4973392;28;20292;-52
2022/03/24 03:43:55;;;;;;;34.80;22.83;;;7.30;1.00;;;;;;4973901;28;20297;-53
2022/03/24 03:46:24;;;;;;;34.13;22.40;;;7.60;99.90;;;;;;4974927;28;20204;-51
2022/03/24 03:48:51;;;;;;;31.10;21.63;;;7.50;99.90;;;;;;4971529;28;20779;-53
2022/03/24 03:51:18;;;;;;;35.30;22.67;;;7.70;1.00;;;;;;4975904;28;20308;-53
2022/03/24 03:53:45;;;;;;;34.53;22.33;;;7.70;99.90;;;;;;4975817;28;20761;-53
2022/03/24 03:56:12;;;;;;;37.83;21.10;;;7.80;1.00;;;;;;4974715;28;20205;-53
2022/03/24 03:58:40;;;;;;;35.40;22.27;;;7.90;99.90;;;;;;4975641;28;20564;-52
2022/03/24 04:01:08;;;;;;;34.10;21.17;;;7.80;1.00;;;;;;4974316;28;20300;-53
2022/03/24 04:03:38;;;;;;;33.87;22.93;;;7.90;1.00;;;;;;4974967;28;20211;-52
2022/03/24 04:06:10;;;;;;;34.10;22.10;;;8.00;1.00;;;;;;4975890;28;20242;-52
2022/03/24 04:08:39;;;;;;;30.87;22.17;;;7.90;1.00;;;;;;4975856;28;20688;-52
2022/03/24 04:11:07;;;;;;;40.00;23.90;;;8.00;1.00;;;;;;4975956;28;20226;-52
2022/03/24 04:13:35;;;;;;;36.90;23.17;;;7.70;99.90;;;;;;4969993;28;20281;-54
2022/03/24 04:16:03;;;;;;;37.97;22.73;;;7.50;99.90;;;;;;4968173;28;20237;-53
2022/03/24 04:18:30;;;;;;;37.00;21.83;;;7.70;99.90;;;;;;4972520;28;20205;-53
2022/03/24 04:20:57;;;;;;;36.70;22.50;;;7.70;99.90;;;;;;4973667;28;20374;-54
2022/03/24 04:23:24;;;;;;;33.23;21.33;;;7.80;1.00;;;;;;4973531;28;20211;-54
2022/03/24 04:25:51;;;;;;;35.83;22.27;;;7.70;1.00;;;;;;4974825;28;20624;-51
2022/03/24 04:28:18;;;;;;;33.03;21.77;;;7.70;99.90;;;;;;4974033;28;20710;-52
2022/03/24 04:30:45;;;;;;;37.20;23.00;;;7.70;99.90;;;;;;4970087;28;20329;-52
2022/03/24 04:33:12;;;;;;;38.50;23.20;;;7.70;99.90;;;;;;4974834;28;20201;-53
2022/03/24 04:35:39;;;;;;;34.53;21.87;;;7.70;99.90;;;;;;4975842;28;20198;-57
2022/03/24 04:38:07;;;;;;;36.03;21.77;;;7.70;1.00;;;;;;4972771;28;20237;-54
2022/03/24 04:40:34;;;;;;;34.57;22.10;;;7.60;1.00;;;;;;4971964;28;20308;-54
2022/03/24 04:43:01;;;;;;;36.63;23.23;;;7.60;1.00;;;;;;4971954;28;20231;-54
2022/03/24 04:45:29;;;;;;;33.27;20.60;;;7.70;99.90;;;;;;4976527;28;20230;-53
2022/03/24 04:47:56;;;;;;;33.83;21.33;;;7.70;97.00;;;;;;4971615;28;20222;-53
2022/03/24 04:50:23;;;;;;;32.47;22.40;;;7.60;1.00;;;;;;4976541;28;20224;-53
2022/03/24 04:52:50;;;;;;;37.87;23.53;;;7.60;1.00;;;;;;4973335;28;20296;-53
2022/03/24 04:55:18;;;;;;;31.07;22.37;;;7.70;1.00;;;;;;4976404;28;20288;-51
2022/03/24 04:57:45;;;;;;;35.00;21.93;;;7.60;1.00;;;;;;4982582;28;20234;-52
2022/03/24 05:00:14;;;;;;;33.10;21.37;;;7.50;1.00;;;;;;4977499;28;20240;-53
2022/03/24 05:02:42;;;;;;;34.50;21.70;;;7.50;1.00;;;;;;4977125;28;20656;-52
2022/03/24 05:05:09;;;;;;;36.60;23.23;;;7.50;1.00;;;;;;4980071;28;20234;-52
2022/03/24 05:07:37;;;;;;;34.40;22.90;;;7.60;99.90;;;;;;4977937;28;20317;-52
2022/03/24 05:10:05;;;;;;;38.50;24.23;;;7.50;1.00;;;;;;4975864;28;20286;-53
2022/03/24 05:12:32;;;;;;;38.20;24.57;;;7.40;1.00;;;;;;4974131;28;20215;-53
2022/03/24 05:14:59;;;;;;;35.93;23.10;;;7.20;99.90;;;;;;4980239;28;20332;-52
2022/03/24 05:17:26;;;;;;;35.00;23.90;;;7.20;1.00;;;;;;4975884;28;20563;-52
2022/03/24 05:19:52;;;;;;;38.03;23.83;;;7.20;1.00;;;;;;4976551;28;20241;-53
2022/03/24 05:22:19;;;;;;;37.10;23.27;;;7.20;1.00;;;;;;4977642;28;20231;-54
2022/03/24 05:24:46;;;;;;;35.37;23.73;;;7.20;99.90;;;;;;4979657;28;20298;-52
2022/03/24 05:27:13;;;;;;;38.73;23.30;;;7.20;1.00;;;;;;4974491;28;20621;-53
2022/03/24 05:29:40;;;;;;;36.77;22.70;;;7.30;1.00;;;;;;4975544;28;20629;-53
2022/03/24 05:32:07;;;;;;;39.37;23.60;;;7.20;1.00;;;;;;4973544;28;20690;-50
2022/03/24 05:34:34;;;;;;;36.80;22.83;;;7.30;99.90;;;;;;4977866;28;20233;-55
2022/03/24 05:37:01;;;;;;;35.40;23.17;;;7.20;99.90;;;;;;4976092;28;20634;-54
2022/03/24 05:39:28;;;;;;;41.00;24.60;;;7.20;11.10;;;;;;4970168;28;20265;-54
2022/03/24 05:41:56;;;;;;;41.60;24.50;;;7.20;99.90;;;;;;4973615;28;20334;-52
2022/03/24 05:44:22;;;;;;;39.30;23.60;;;7.20;99.90;;;;;;4972121;28;20695;-56
2022/03/24 05:46:49;;;;;;;36.70;23.23;;;7.20;1.00;;;;;;4966493;28;20293;-54
2022/03/24 05:49:19;;;;;;;35.87;23.80;;;7.20;1.00;;;;;;4969534;28;20310;-55
2022/03/24 05:51:47;;;;;;;34.73;23.10;;;7.20;1.00;;;;;;4972145;28;20212;-54
2022/03/24 05:54:16;;;;;;;33.37;23.13;;;7.10;1.00;;;;;;4973731;28;20226;-53
2022/03/24 05:56:47;;;;;;;39.37;23.70;;;7.20;99.90;;;;;;4972026;28;20297;-52
2022/03/24 05:59:15;;;;;;;39.90;23.03;;;7.20;1.00;;;;;;4974685;28;20206;-51
2022/03/24 06:01:44;;;;;;;36.93;23.00;;;7.20;99.90;;;;;;4968773;28;20663;-54
2022/03/24 06:04:15;;;;;;;36.73;21.70;;;7.30;1.00;;;;;;4972846;28;20210;-55
2022/03/24 06:06:44;;;;;;;34.57;21.87;;;7.40;1.00;;;;;;4971543;28;20327;-53
2022/03/24 06:09:11;;;;;;;36.47;23.30;;;7.20;1.00;;;;;;4970878;28;20323;-52
2022/03/24 06:11:38;;;;;;;34.83;23.80;;;7.10;1.00;;;;;;4969697;28;20318;-54
2022/03/24 06:14:08;;;;;;;36.60;24.03;;;7.00;99.90;;;;;;4973586;28;20207;-52
2022/03/24 06:16:35;;;;;;;34.63;23.73;;;6.70;1.00;;;;;;4970408;28;20242;-54
2022/03/24 06:19:02;;;;;;;35.43;22.20;;;6.90;1.00;;;;;;4970126;28;20202;-55
2022/03/24 06:21:29;;;;;;;36.17;23.47;;;7.10;1.00;;;;;;4967890;28;20246;-53
2022/03/24 06:23:57;;;;;;;38.13;24.63;;;7.20;1.00;;;;;;4975194;28;20589;-52
2022/03/24 06:26:23;;;;;;;34.00;22.80;;;7.30;1.00;;;;;;4973168;28;20216;-55
2022/03/24 06:28:52;;;;;;;35.77;22.57;;;7.20;99.90;;;;;;4972487;28;20195;-53
2022/03/24 06:31:20;;;;;;;36.33;23.27;;;7.20;17.80;;;;;;4971050;28;20743;-52
2022/03/24 06:33:48;;;;;;;33.10;22.23;;;7.20;1.00;;;;;;4971774;28;20320;-54
2022/03/24 06:36:15;;;;;;;34.17;23.33;;;7.10;61.20;;;;;;4973293;28;20629;-56
2022/03/24 06:38:42;;;;;;;35.97;22.20;;;7.20;99.90;;;;;;4974590;28;20211;-53
2022/03/24 06:41:09;;;;;;;35.60;22.13;;;7.50;1.00;;;;;;4971090;28;20589;-52
2022/03/24 06:43:36;;;;;;;37.37;22.47;;;7.70;1.00;;;;;;4974996;28;20314;-52
2022/03/24 06:46:06;;;;;;;34.53;23.17;;;7.80;99.90;;;;;;4974010;28;20302;-54
2022/03/24 06:48:33;;;;;;;35.60;22.77;;;8.10;83.70;;;;;;4973438;28;20205;-52
2022/03/24 06:51:00;;;;;;;36.50;22.23;;;8.10;99.90;;;;;;4972334;28;20350;-54
2022/03/24 06:53:27;;;;;;;33.83;23.50;;;8.20;1.00;;;;;;4974463;28;20695;-53
2022/03/24 06:55:54;;;;;;;32.13;21.80;;;8.20;1.00;;;;;;4973962;28;20741;-53
2022/03/24 06:58:22;;;;;;;34.40;23.37;;;8.20;99.90;;;;;;4970343;28;20235;-53
2022/03/24 07:00:49;;;;;;;34.50;23.00;;;8.30;99.90;;;;;;4968026;28;20263;-53
2022/03/24 07:03:16;;;;;;;40.30;23.80;;;8.50;99.90;;;;;;4973814;28;20298;-53
2022/03/24 07:05:43;;;;;;;38.87;24.10;;;8.70;1.00;;;;;;4969514;28;20882;-53
2022/03/24 07:08:11;;;;;;;46.20;25.00;;;8.80;99.90;;;;;;4970046;28;20301;-53
2022/03/24 07:10:44;;;;;;;39.40;23.37;;;9.10;99.90;;;;;;4972567;28;20701;-54
2022/03/24 07:13:11;;;;;;;36.43;23.30;;;9.20;1.00;;;;;;4967090;28;20288;-53
2022/03/24 07:15:38;;;;;;;34.33;22.10;;;9.20;1.00;;;;;;4965478;28;20655;-53
2022/03/24 07:18:05;;;;;;;34.43;23.33;;;9.40;1.00;;;;;;4965865;28;20201;-53
2022/03/24 07:20:34;;;;;;;39.63;23.17;;;9.60;1.00;;;;;;4970846;28;20636;-54
2022/03/24 07:23:03;;;;;;;33.57;22.60;;;9.80;1.00;;;;;;4969864;28;20209;-53
2022/03/24 07:25:31;;;;;;;35.63;24.00;;;9.70;1.00;;;;;;4975244;28;20657;-54
2022/03/24 07:27:59;;;;;;;35.00;23.73;;;9.70;1.00;;;;;;4969005;28;20863;-55
2022/03/24 07:30:27;;;;;;;38.70;23.20;;;10.00;1.00;;;;;;4967941;28;20326;-54
2022/03/24 07:32:55;;;;;;;34.63;23.27;;;10.20;1.00;;;;;;4989353;28;20685;-56
2022/03/24 07:35:26;;;;;;;37.43;24.47;;;10.20;1.00;;;;;;4975735;28;20573;-53
2022/03/24 07:37:53;;;;;;;32.80;23.03;;;10.40;1.00;;;;;;4963133;28;20393;-52
2022/03/24 07:40:22;;;;;;;41.37;23.37;;;10.50;99.90;;;;;;4975935;28;20210;-53
2022/03/24 07:42:52;;;;;;;33.63;23.80;;;10.50;1.00;;;;;;4971920;28;20214;-51
2022/03/24 07:45:20;;;;;;;37.63;24.87;;;10.50;1.00;;;;;;4971925;28;20256;-51
2022/03/24 07:48:08;;;;;;;38.40;24.87;;;10.90;99.90;;;;;;4974543;28;20370;-51
2022/03/24 07:50:41;;;;;;;39.23;24.43;;;11.20;1.00;;;;;;4970382;28;20250;-52
2022/03/24 07:53:14;;;;;;;34.27;22.80;;;11.70;1.00;;;;;;4978884;28;20836;-52
2022/03/24 07:55:42;;;;;;;33.50;23.83;;;12.00;99.90;;;;;;4979329;28;20287;-51
2022/03/24 07:58:10;;;;;;;39.67;24.63;;;12.30;99.90;;;;;;4976712;28;20197;-52
2022/03/24 08:00:37;;;;;;;32.90;23.80;;;12.90;1.00;;;;;;4972853;28;20313;-53
2022/03/24 08:03:08;;;;;;;36.97;22.50;;;13.30;99.90;;;;;;4972774;28;20203;-53
2022/03/24 08:05:35;;;;;;;41.73;23.33;;;13.70;1.00;;;;;;4978306;28;20241;-53
2022/03/24 08:08:04;;;;;;;37.70;22.67;;;13.90;1.00;;;;;;4975183;28;20340;-52
2022/03/24 08:10:31;;;;;;;39.43;22.47;;;14.10;1.00;;;;;;5010954;28;20220;-53
2022/03/24 08:12:58;;;;;;;36.50;22.03;;;14.50;99.90;;;;;;4966791;28;20829;-52
2022/03/24 08:15:25;;;;;;;35.87;22.77;;;14.80;27.00;;;;;;4972131;28;20544;-53
2022/03/24 08:17:52;;;;;;;32.93;22.90;;;15.20;1.00;;;;;;4974868;28;20646;-53
2022/03/24 08:20:19;;;;;;;32.37;22.57;;;15.30;1.00;;;;;;4974685;28;20206;-51
2022/03/24 08:22:46;;;;;;;33.97;22.40;;;15.60;1.00;;;;;;4974730;28;20534;-51
2022/03/24 08:25:13;;;;;;;35.40;22.27;;;15.80;1.00;;;;;;4974917;28;20298;-53
2022/03/24 08:27:40;;;;;;;33.90;22.93;;;16.20;1.00;;;;;;4974747;28;20236;-52
2022/03/24 08:30:07;;;;;;;29.93;21.93;;;16.50;1.00;;;;;;4976677;28;20637;-51
2022/03/24 08:32:34;;;;;;;30.93;22.03;;;16.50;99.90;;;;;;4974310;28;20284;-53
2022/03/24 08:35:01;;;;;;;35.03;22.70;;;16.60;99.90;;;;;;4971687;28;20212;-54
2022/03/24 08:37:27;;;;;;;31.03;21.83;;;16.80;99.90;;;;;;4973695;28;20227;-51
2022/03/24 08:39:54;;;;;;;31.20;21.80;;;17.30;99.90;;;;;;4975076;28;20246;-52
2022/03/24 08:42:21;;;;;;;35.20;23.17;;;17.50;99.90;;;;;;4973746;28;20305;-52
2022/03/24 08:44:48;;;;;;;33.70;23.63;;;17.90;99.90;;;;;;4972775;28;20318;-52
2022/03/24 08:47:15;;;;;;;36.87;23.60;;;18.30;28.50;;;;;;4977079;28;20255;-52
2022/03/24 08:49:42;;;;;;;37.07;23.37;;;18.50;1.00;;;;;;4971219;28;20719;-53
2022/03/24 08:52:10;;;;;;;32.07;23.20;;;18.80;1.00;;;;;;4976431;28;20852;-52
2022/03/24 08:54:37;;;;;;;33.53;23.90;;;19.00;1.00;;;;;;4976104;28;20293;-52
2022/03/24 08:57:04;;;;;;;34.00;23.50;;;18.90;1.00;;;;;;4974155;28;20273;-53
2022/03/24 08:59:31;;;;;;;29.60;22.67;;;18.70;1.00;;;;;;4976913;28;20350;-52
2022/03/24 09:01:58;;;;;;;31.53;22.33;;;18.80;1.00;;;;;;4976666;28;20309;-52
2022/03/24 09:04:27;;;;;;;32.40;23.40;;;18.90;1.00;;;;;;4977109;28;20275;-52
2022/03/24 09:06:54;;;;;;;28.17;22.27;;;19.70;1.00;;;;;;4975194;28;20257;-52
2022/03/24 09:09:22;;;;;;;29.50;22.83;;;20.00;1.00;;;;;;4973888;28;20230;-53
2022/03/24 09:11:50;;;;;;;29.87;22.97;;;20.20;1.00;;;;;;4971607;28;20240;-54
2022/03/24 09:14:17;;;;;;;34.20;22.57;;;20.60;1.00;;;;;;4973336;28;20197;-54
2022/03/24 09:16:45;;;;;;;29.90;21.67;;;20.50;1.00;;;;;;4973968;28;21443;-52
2022/03/24 09:19:15;;;;;;;29.63;21.17;;;20.50;1.00;;;;;;4975521;28;20213;-52
2022/03/24 09:21:42;;;;;;;30.10;21.70;;;20.40;1.00;;;;;;4975596;28;20194;-53
2022/03/24 09:24:09;;;;;;;28.47;21.00;;;20.80;1.00;;;;;;4975612;28;20664;-53
2022/03/24 09:26:38;;;;;;;25.57;20.20;;;20.60;1.00;;;;;;4976045;28;20223;-53
2022/03/24 09:29:05;;;;;;;21.40;18.47;;;20.30;1.00;;;;;;4976448;28;20298;-52
2022/03/24 09:31:32;;;;;;;21.03;17.87;;;20.20;1.00;;;;;;4975877;28;20308;-54
2022/03/24 09:33:59;;;;;;;18.67;16.50;;;19.60;1.00;;;;;;4978090;28;20609;-51
2022/03/24 09:36:26;;;;;;;20.47;17.17;;;19.70;1.00;;;;;;4974398;28;20229;-54
2022/03/24 09:38:53;;;;;;;18.67;15.00;;;19.60;1.00;;;;;;4976741;28;21020;-51
2022/03/24 09:41:21;;;;;;;18.73;15.60;;;19.40;1.00;;;;;;4976765;28;20249;-53
2022/03/24 09:43:48;;;;;;;17.27;15.03;;;20.30;1.00;;;;;;4970724;28;20592;-53
2022/03/24 09:46:16;;;;;;;19.40;16.37;;;20.10;1.00;;;;;;4964925;28;20218;-52
2022/03/24 09:48:43;;;;;;;17.13;14.27;;;20.00;1.00;;;;;;4966467;28;20560;-51
2022/03/24 09:51:11;;;;;;;19.07;14.57;;;19.60;1.00;;;;;;4970006;28;20776;-53
2022/03/24 09:53:41;;;;;;;22.33;15.70;;;20.20;1.00;;;;;;4973015;28;20696;-53
2022/03/24 09:56:09;;;;;;;19.03;15.80;;;20.00;1.00;;;;;;4971410;28;20210;-51
2022/03/24 09:58:36;;;;;;;18.60;14.57;;;19.80;1.00;;;;;;4978196;28;20672;-52
2022/03/24 10:01:03;;;;;;;17.90;15.30;;;20.40;1.00;;;;;;4975855;28;20261;-54
2022/03/24 10:03:31;;;;;;;19.07;14.80;;;19.70;1.00;;;;;;4973018;28;20241;-53
2022/03/24 10:06:04;;;;;;;19.27;16.07;;;19.90;1.00;;;;;;4975634;28;20775;-51
2022/03/24 10:08:31;;;;;;;18.30;15.60;;;20.00;1.00;;;;;;4973705;28;20719;-54
2022/03/24 10:11:04;;;;;;;18.90;15.13;;;19.70;1.00;;;;;;4971402;28;20622;-52
2022/03/24 10:13:55;;;;;;;20.70;16.57;;;20.00;1.00;;;;;;4973974;28;20214;-52
2022/03/24 10:16:34;;;;;;;20.30;15.33;;;20.20;1.00;;;;;;4975062;28;20213;-54
2022/03/24 10:19:07;;;;;;;19.50;15.57;;;20.10;1.00;;;;;;4976251;28;20198;-52
2022/03/24 10:21:37;;;;;;;19.00;15.93;;;20.00;1.00;;;;;;4975939;28;20260;-51
2022/03/24 10:24:16;;;;;;;19.50;16.53;;;20.30;1.00;;;;;;4976270;28;20682;-51
2022/03/24 10:26:55;;;;;;;17.33;15.07;;;19.90;1.00;;;;;;4977394;28;20254;-51
2022/03/24 10:29:23;;;;;;;20.07;16.50;;;20.10;1.00;;;;;;4973989;28;20305;-52
2022/03/24 10:31:58;;;;;;;20.20;17.07;;;20.50;1.00;;;;;;4976884;28;20272;-53
2022/03/24 10:34:36;;;;;;;22.47;16.30;;;20.60;1.00;;;;;;4974071;28;20691;-53
2022/03/24 10:37:06;;;;;;;21.30;16.93;;;20.50;1.00;;;;;;4974176;28;20236;-52
2022/03/24 10:39:35;;;;;;;23.70;16.63;;;20.50;1.00;;;;;;4974567;28;20233;-53
2022/03/24 10:42:24;;;;;;;21.37;16.73;;;20.30;1.00;;;;;;4975731;28;20234;-51
2022/03/24 10:45:03;;;;;;;19.93;14.97;;;20.00;1.00;;;;;;4977157;28;20254;-52
2022/03/24 10:47:53;;;;;;;19.70;16.20;;;20.20;1.00;;;;;;4976108;28;20297;-51
2022/03/24 10:50:40;;;;;;;20.70;16.53;;;20.20;1.00;;;;;;4977161;28;20244;-52
2022/03/24 10:53:19;;;;;;;21.17;16.13;;;20.40;1.00;;;;;;4978969;28;20216;-51
2022/03/24 10:56:00;;;;;;;19.77;17.10;;;20.60;1.00;;;;;;4977228;28;20316;-52
2022/03/24 10:58:40;;;;;;;21.30;16.67;;;20.50;1.00;;;;;;4973972;28;20233;-51
2022/03/24 11:01:09;;;;;;;23.23;17.13;;;20.50;1.00;;;;;;4977022;28;20292;-54
2022/03/24 11:03:36;;;;;;;22.00;16.50;;;20.30;1.00;;;;;;4973468;28;20217;-49
2022/03/24 11:06:09;;;;;;;20.77;15.57;;;20.60;1.00;;;;;;4977235;28;20357;-52
2022/03/24 11:08:36;;;;;;;19.10;15.87;;;20.70;1.00;;;;;;4973996;28;20210;-53
2022/03/24 11:11:12;;;;;;;17.67;12.50;;;20.90;1.00;;;;;;4977409;28;20332;-50
2022/03/24 11:13:55;;;;;;;16.30;12.83;;;21.10;1.00;;;;;;4976422;28;20209;-52
2022/03/24 11:16:27;;;;;;;19.57;13.87;;;20.70;1.00;;;;;;4975527;28;20230;-51
2022/03/24 11:18:58;;;;;;;18.93;13.63;;;20.80;1.00;;;;;;4977956;28;20194;-53
2022/03/24 11:21:39;;;;;;;18.23;13.50;;;20.80;1.00;;;;;;4975149;28;20213;-52
2022/03/24 11:24:07;;;;;;;18.57;15.00;;;20.90;1.00;;;;;;4979371;28;20237;-51
2022/03/24 11:26:35;;;;;;;18.53;14.93;;;20.90;1.00;;;;;;4974387;28;20210;-52
2022/03/24 11:29:04;;;;;;;21.93;16.07;;;21.30;1.00;;;;;;4977594;28;20205;-52
2022/03/24 11:31:31;;;;;;;22.33;16.37;;;21.30;1.00;;;;;;4978156;28;20730;-51
2022/03/24 11:34:04;;;;;;;19.87;15.70;;;21.50;1.00;;;;;;4975318;28;20210;-51
2022/03/24 11:36:32;;;;;;;17.47;14.53;;;21.70;1.00;;;;;;4982198;28;20197;-50
2022/03/24 11:39:02;;;;;;;17.73;15.13;;;21.50;1.00;;;;;;4978208;28;20207;-50
2022/03/24 11:41:39;;;;;;;25.63;16.50;;;21.70;1.00;;;;;;4979331;28;20206;-51
2022/03/24 11:44:14;;;;;;;18.07;16.00;;;22.00;1.00;;;;;;4977278;28;20242;-51
2022/03/24 11:46:54;;;;;;;20.80;15.40;;;21.90;1.00;;;;;;4976693;28;20210;-53
2022/03/24 11:49:27;;;;;;;17.30;13.80;;;22.20;1.00;;;;;;4976955;28;20289;-53
2022/03/24 11:51:56;;;;;;;19.10;16.03;;;21.70;1.00;;;;;;4972680;28;20215;-53
2022/03/24 11:54:29;;;;;;;21.60;15.73;;;21.80;1.00;;;;;;4976083;28;20257;-52
2022/03/24 11:57:21;;;;;;;29.43;16.57;;;22.20;1.00;;;;;;4974056;28;20202;-51
2022/03/24 11:59:52;;;;;;;23.90;15.83;;;22.00;1.00;;;;;;4974578;28;20296;-51
2022/03/24 12:02:19;;;;;;;18.70;14.87;;;21.70;1.00;;;;;;4972756;28;20206;-51
2022/03/24 12:04:57;;;;;;;22.37;16.60;;;22.30;1.00;;;;;;4972756;28;20242;-50
2022/03/24 12:07:25;;;;;;;20.83;15.80;;;22.70;1.00;;;;;;4968118;28;20256;-51
2022/03/24 12:09:58;;;;;;;22.93;16.90;;;22.70;1.00;;;;;;4978344;28;20293;-50
2022/03/24 12:12:25;;;;;;;19.87;15.47;;;22.80;1.00;;;;;;4973847;28;20310;-51
2022/03/24 12:14:54;;;;;;;26.13;18.93;;;22.90;1.00;;;;;;4976561;28;20205;-53
2022/03/24 12:17:23;;;;;;;22.07;16.90;;;22.90;1.00;;;;;;4975238;28;20258;-51
2022/03/24 12:19:57;;;;;;;26.43;16.67;;;23.10;1.00;;;;;;4976902;28;20289;-50
2022/03/24 12:22:28;;;;;;;18.83;15.87;;;23.40;1.00;;;;;;4971333;28;20309;-52
2022/03/24 12:25:02;;;;;;;21.13;17.33;;;23.70;1.00;;;;;;4976358;28;20222;-52
2022/03/24 12:27:32;;;;;;;27.17;18.73;;;23.50;1.00;;;;;;4973208;28;20305;-51
2022/03/24 12:30:14;;;;;;;20.93;16.93;;;22.90;1.00;;;;;;4968566;28;20316;-52
2022/03/24 12:32:43;;;;;;;24.13;18.40;;;23.10;1.00;;;;;;4976261;28;20810;-50
2022/03/24 12:35:52;;;;;;;26.03;17.30;;;23.20;1.00;;;;;;4977106;28;20287;-51
2022/03/24 12:38:43;;;;;;;23.43;16.73;;;22.60;1.00;;;;;;4991577;28;20212;-51
2022/03/24 12:41:10;;;;;;;20.57;15.50;;;22.90;1.00;;;;;;4988064;28;20224;-51
2022/03/24 12:43:49;;;;;;;18.90;14.57;;;23.40;1.00;;;;;;4983646;28;20216;-52
2022/03/24 12:46:34;;;;;;;19.63;16.33;;;23.30;1.00;;;;;;4987894;28;20222;-53
2022/03/24 12:49:10;;;;;;;22.07;17.13;;;23.00;1.00;;;;;;4988912;28;20206;-54